createdAt,value
2023-07-10T00:01:16.292Z,12.87
2023-07-10T00:03:42.855Z,12.73
2023-07-10T00:06:12.400Z,11.80
2023-07-10T00:08:40.047Z,11.23
2023-07-10T00:11:33.412Z,11.40
2023-07-10T00:14:00.112Z,10.83
2023-07-10T00:16:28.261Z,12.90
2023-07-10T00:18:55.514Z,12.83
2023-07-10T00:21:22.039Z,11.87
2023-07-10T00:23:48.640Z,11.37
2023-07-10T00:26:27.159Z,11.03
2023-07-10T00:28:57.416Z,12.00
2023-07-10T00:31:26.183Z,12.20
2023-07-10T00:33:53.439Z,11.93
2023-07-10T00:36:28.122Z,11.90
2023-07-10T00:38:54.961Z,10.30
2023-07-10T00:41:25.252Z,10.07
2023-07-10T00:43:59.201Z,11.07
2023-07-10T00:46:40.170Z,10.17
2023-07-10T00:49:17.216Z,10.33
2023-07-10T00:51:56.301Z,11.13
2023-07-10T00:54:31.287Z,10.50
2023-07-10T00:56:58.879Z,10.30
2023-07-10T00:59:28.567Z,9.03
2023-07-10T01:02:08.039Z,8.87
2023-07-10T01:04:41.026Z,8.80
2023-07-10T01:07:10.808Z,8.80
2023-07-10T01:09:37.988Z,8.30
2023-07-10T01:12:07.077Z,8.40
2023-07-10T01:14:35.988Z,8.50
2023-07-10T01:17:05.054Z,9.20
2023-07-10T01:19:32.284Z,9.50
2023-07-10T01:21:59.472Z,10.20
2023-07-10T01:24:26.256Z,9.17
2023-07-10T01:26:54.586Z,10.33
2023-07-10T01:29:25.546Z,9.70
2023-07-10T01:31:54.754Z,9.50
2023-07-10T01:34:25.037Z,10.77
2023-07-10T01:36:52.066Z,10.33
2023-07-10T01:39:33.288Z,10.80
2023-07-10T01:41:59.778Z,12.30
2023-07-10T01:44:35.720Z,13.77
2023-07-10T01:47:05.142Z,12.70
2023-07-10T01:49:43.959Z,14.87
2023-07-10T01:52:12.924Z,13.77
2023-07-10T01:54:40.056Z,13.40
2023-07-10T01:57:11.242Z,13.73
2023-07-10T01:59:38.558Z,13.17
2023-07-10T02:02:05.864Z,15.63
2023-07-10T02:04:32.558Z,16.20
2023-07-10T02:06:59.141Z,16.60
2023-07-10T02:09:27.733Z,14.37
2023-07-10T02:11:55.161Z,16.13
2023-07-10T02:14:22.418Z,16.80
2023-07-10T02:16:49.991Z,15.83
2023-07-10T02:19:16.833Z,18.03
2023-07-10T02:21:43.349Z,18.13
2023-07-10T02:24:10.104Z,17.83
2023-07-10T02:26:36.611Z,17.87
2023-07-10T02:29:04.138Z,17.30
2023-07-10T02:31:31.461Z,16.90
2023-07-10T02:33:58.394Z,16.23
2023-07-10T02:36:26.412Z,16.40
2023-07-10T02:38:52.873Z,14.93
2023-07-10T02:41:19.376Z,13.10
2023-07-10T02:43:45.960Z,15.20
2023-07-10T02:46:12.461Z,13.67
2023-07-10T02:48:39.024Z,13.00
2023-07-10T02:51:05.501Z,11.70
2023-07-10T02:53:33.190Z,10.50
2023-07-10T02:56:00.067Z,12.57
2023-07-10T02:58:26.543Z,10.60
2023-07-10T03:01:02.026Z,11.00
2023-07-10T03:03:28.995Z,10.93
2023-07-10T03:06:01.836Z,11.40
2023-07-10T03:08:30.316Z,11.20
2023-07-10T03:11:05.613Z,12.60
2023-07-10T03:13:32.464Z,12.03
2023-07-10T03:16:08.790Z,13.27
2023-07-10T03:18:36.302Z,13.70
2023-07-10T03:21:03.526Z,14.50
2023-07-10T03:23:30.041Z,15.60
2023-07-10T03:25:56.686Z,14.80
2023-07-10T03:28:23.589Z,13.90
2023-07-10T03:30:50.575Z,13.83
2023-07-10T03:33:18.734Z,14.83
2023-07-10T03:35:49.976Z,13.53
2023-07-10T03:38:17.641Z,14.37
2023-07-10T03:40:52.318Z,12.27
2023-07-10T03:43:19.165Z,14.80
2023-07-10T03:45:45.685Z,13.13
2023-07-10T03:48:12.293Z,14.73
2023-07-10T03:50:39.146Z,14.47
2023-07-10T03:53:06.081Z,17.70
2023-07-10T03:55:32.628Z,18.27
2023-07-10T03:57:59.104Z,17.93
2023-07-10T04:00:25.623Z,20.17
2023-07-10T04:02:52.236Z,19.73
2023-07-10T04:05:18.841Z,18.87
2023-07-10T04:07:45.383Z,19.53
2023-07-10T04:10:11.889Z,19.93
2023-07-10T04:12:42.015Z,20.80
2023-07-10T04:15:09.011Z,20.60
2023-07-10T04:17:36.451Z,20.90
2023-07-10T04:20:04.108Z,21.00
2023-07-10T04:22:30.615Z,23.27
2023-07-10T04:25:05.210Z,21.40
2023-07-10T04:27:31.777Z,22.47
2023-07-10T04:29:58.309Z,22.57
2023-07-10T04:32:24.834Z,22.53
2023-07-10T04:34:51.631Z,23.03
2023-07-10T04:37:18.158Z,25.20
2023-07-10T04:39:46.255Z,23.03
2023-07-10T04:42:13.049Z,22.90
2023-07-10T04:44:39.553Z,23.33
2023-07-10T04:47:06.666Z,23.50
2023-07-10T04:49:33.450Z,24.00
2023-07-10T04:51:59.952Z,23.07
2023-07-10T04:54:26.473Z,24.07
2023-07-10T04:56:53.661Z,21.80
2023-07-10T04:59:20.289Z,21.87
2023-07-10T05:01:46.852Z,22.77
2023-07-10T05:04:13.468Z,30.23
2023-07-10T05:06:39.998Z,21.40
2023-07-10T05:09:06.680Z,20.43
2023-07-10T05:11:33.242Z,23.03
2023-07-10T05:13:59.910Z,21.43
2023-07-10T05:16:27.059Z,20.77
2023-07-10T05:18:53.724Z,19.10
2023-07-10T05:21:20.437Z,20.07
2023-07-10T05:23:46.965Z,21.10
2023-07-10T05:26:16.586Z,21.13
2023-07-10T05:28:43.407Z,19.80
2023-07-10T05:31:11.951Z,21.57
2023-07-10T05:33:40.211Z,20.50
2023-07-10T05:36:11.260Z,19.50
2023-07-10T05:38:38.087Z,18.17
2023-07-10T05:41:05.270Z,17.83
2023-07-10T05:43:33.696Z,17.97
2023-07-10T05:46:00.564Z,18.63
2023-07-10T05:48:28.154Z,16.10
2023-07-10T05:50:54.828Z,17.73
2023-07-10T05:53:21.922Z,20.17
2023-07-10T05:55:54.271Z,16.77
2023-07-10T05:58:23.679Z,16.80
2023-07-10T06:00:53.980Z,17.37
2023-07-10T06:03:20.595Z,17.20
2023-07-10T06:05:59.709Z,19.03
2023-07-10T06:08:27.791Z,21.37
2023-07-10T06:10:54.526Z,18.50
2023-07-10T06:13:21.581Z,18.83
2023-07-10T06:15:50.618Z,17.57
2023-07-10T06:18:18.034Z,17.60
2023-07-10T06:20:44.993Z,16.83
2023-07-10T06:23:11.510Z,16.90
2023-07-10T06:25:45.030Z,18.50
2023-07-10T06:28:12.829Z,17.63
2023-07-10T06:30:41.525Z,15.47
2023-07-10T06:33:08.214Z,16.57
2023-07-10T06:35:34.848Z,16.37
2023-07-10T06:38:01.327Z,17.60
2023-07-10T06:40:27.921Z,15.07
2023-07-10T06:42:54.466Z,16.13
2023-07-10T06:45:21.009Z,16.50
2023-07-10T06:47:48.324Z,15.47
2023-07-10T06:50:15.747Z,15.00
2023-07-10T06:52:44.505Z,15.70
2023-07-10T06:55:16.906Z,15.10
2023-07-10T06:57:43.942Z,15.20
2023-07-10T07:00:13.670Z,15.50
2023-07-10T07:02:40.488Z,13.60
2023-07-10T07:05:08.646Z,12.43
2023-07-10T07:07:47.537Z,14.57
2023-07-10T07:10:34.047Z,12.73
2023-07-10T07:13:00.867Z,11.90
2023-07-10T07:15:27.391Z,11.53
2023-07-10T07:17:54.266Z,12.07
2023-07-10T07:20:20.803Z,10.83
2023-07-10T07:22:47.347Z,11.53
2023-07-10T07:25:13.850Z,11.77
2023-07-10T07:27:40.497Z,10.60
2023-07-10T07:30:07.699Z,10.90
2023-07-10T07:32:34.454Z,10.50
2023-07-10T07:35:01.006Z,9.60
2023-07-10T07:37:27.599Z,10.43
2023-07-10T07:40:07.623Z,9.80
2023-07-10T07:42:34.115Z,8.77
2023-07-10T07:45:00.755Z,8.23
2023-07-10T07:47:28.700Z,6.90
2023-07-10T07:49:55.743Z,7.27
2023-07-10T07:52:22.459Z,8.00
2023-07-10T07:54:49.849Z,6.20
2023-07-10T07:57:16.360Z,5.90
2023-07-10T07:59:42.890Z,7.70
2023-07-10T08:02:10.416Z,5.97
2023-07-10T08:04:37.366Z,5.37
2023-07-10T08:07:04.102Z,5.00
2023-07-10T08:09:30.605Z,6.20
2023-07-10T08:11:57.114Z,5.00
2023-07-10T08:14:23.600Z,5.30
2023-07-10T08:16:52.445Z,4.40
2023-07-10T08:19:19.337Z,4.63
2023-07-10T08:21:47.947Z,4.43
2023-07-10T08:24:14.662Z,4.37
2023-07-10T08:26:41.172Z,4.23
2023-07-10T08:29:30.588Z,3.90
2023-07-10T08:31:59.748Z,4.03
2023-07-10T08:34:28.463Z,3.63
2023-07-10T08:36:55.628Z,3.43
2023-07-10T08:39:23.962Z,3.70
2023-07-10T08:42:02.212Z,3.67
2023-07-10T08:44:37.676Z,3.77
2023-07-10T08:47:16.650Z,3.97
2023-07-10T08:49:55.686Z,4.00
2023-07-10T08:52:38.431Z,3.90
2023-07-10T08:55:11.644Z,3.97
2023-07-10T08:57:45.585Z,2.97
2023-07-10T09:00:16.011Z,3.80
2023-07-10T09:03:11.873Z,2.93
2023-07-10T09:05:41.025Z,2.97
2023-07-10T09:08:13.070Z,3.30
2023-07-10T09:10:41.292Z,3.23
2023-07-10T09:13:14.302Z,3.00
2023-07-10T09:15:48.897Z,3.20
2023-07-10T09:18:22.701Z,2.87
2023-07-10T09:20:59.392Z,3.37
2023-07-10T09:23:34.952Z,2.67
2023-07-10T09:26:14.130Z,2.43
2023-07-10T09:28:42.249Z,2.83
2023-07-10T09:31:50.647Z,2.30
2023-07-10T09:34:22.910Z,2.57
2023-07-10T09:36:53.464Z,2.90
2023-07-10T09:39:20.431Z,2.30
2023-07-10T09:41:48.713Z,2.50
2023-07-10T09:44:21.574Z,2.27
2023-07-10T09:46:51.531Z,2.27
2023-07-10T09:49:21.747Z,2.30
2023-07-10T09:52:00.469Z,2.17
2023-07-10T09:54:39.716Z,2.40
2023-07-10T09:57:18.016Z,2.50
2023-07-10T10:00:04.361Z,2.30
2023-07-10T10:02:46.862Z,2.30
2023-07-10T10:05:13.481Z,2.90
2023-07-10T10:07:42.937Z,2.40
2023-07-10T10:10:23.936Z,2.23
2023-07-10T10:13:02.206Z,2.43
2023-07-10T10:15:47.524Z,2.53
2023-07-10T10:18:52.425Z,2.27
2023-07-10T10:21:20.872Z,2.60
2023-07-10T10:23:50.522Z,2.00
2023-07-10T10:26:42.286Z,2.20
2023-07-10T10:29:36.699Z,2.57
2023-07-10T10:32:27.107Z,2.30
2023-07-10T10:35:01.701Z,2.70
2023-07-10T10:37:31.204Z,2.23
2023-07-10T10:40:10.409Z,2.17
2023-07-10T10:42:57.211Z,2.60
2023-07-10T10:45:34.959Z,2.43
2023-07-10T10:48:16.710Z,2.43
2023-07-10T10:51:12.629Z,2.40
2023-07-10T10:53:45.359Z,2.50
2023-07-10T10:56:26.476Z,2.40
2023-07-10T10:59:02.307Z,2.53
2023-07-10T11:01:37.095Z,2.50
2023-07-10T11:04:22.499Z,2.80
2023-07-10T11:06:50.829Z,2.03
2023-07-10T11:09:30.536Z,2.93
2023-07-10T11:11:59.959Z,2.47
2023-07-10T11:14:28.544Z,2.50
2023-07-10T11:16:58.804Z,2.30
2023-07-10T11:19:29.886Z,2.30
2023-07-10T11:21:57.207Z,2.40
2023-07-10T11:24:26.665Z,2.63
2023-07-10T11:26:58.832Z,2.40
2023-07-10T11:29:37.896Z,2.30
2023-07-10T11:32:21.244Z,2.47
2023-07-10T11:34:52.072Z,2.47
2023-07-10T11:37:47.154Z,2.80
2023-07-10T11:40:28.742Z,2.47
2023-07-10T11:43:20.192Z,2.43
2023-07-10T11:45:52.990Z,2.17
2023-07-10T11:48:43.918Z,2.30
2023-07-10T11:51:30.893Z,2.00
2023-07-10T11:54:06.552Z,2.20
2023-07-10T11:56:34.537Z,2.97
2023-07-10T11:59:15.899Z,2.30
2023-07-10T12:01:43.255Z,2.40
2023-07-10T12:04:16.856Z,2.13
2023-07-10T12:06:47.296Z,2.00
2023-07-10T12:09:13.811Z,2.47
2023-07-10T12:11:41.219Z,2.17
2023-07-10T12:14:13.457Z,2.33
2023-07-10T12:17:10.983Z,1.90
2023-07-10T12:19:39.197Z,2.60
2023-07-10T12:22:26.629Z,2.20
2023-07-10T12:25:01.113Z,2.43
2023-07-10T12:30:15.286Z,2.30
2023-07-10T12:32:41.920Z,1.80
2023-07-10T12:35:27.413Z,2.30
2023-07-10T12:37:54.196Z,2.40
2023-07-10T12:40:20.809Z,2.07
2023-07-10T12:42:48.834Z,2.30
2023-07-10T12:45:34.166Z,2.03
2023-07-10T12:48:15.456Z,2.40
2023-07-10T12:50:50.974Z,2.00
2023-07-10T12:53:21.335Z,2.17
2023-07-10T12:56:06.780Z,1.90
2023-07-10T12:58:35.202Z,2.23
2023-07-10T13:01:18.170Z,2.43
2023-07-10T13:03:45.170Z,2.00
2023-07-10T13:06:18.622Z,2.23
2023-07-10T13:08:48.250Z,2.27
2023-07-10T13:11:35.839Z,2.33
2023-07-10T13:16:44.667Z,2.07
2023-07-10T13:19:11.187Z,2.10
2023-07-10T13:21:37.723Z,2.50
2023-07-10T13:24:04.518Z,2.30
2023-07-10T13:26:31.101Z,2.13
2023-07-10T13:28:57.655Z,2.20
2023-07-10T13:31:26.345Z,1.90
2023-07-10T13:33:53.028Z,2.40
2023-07-10T13:36:21.906Z,1.93
2023-07-10T13:38:49.190Z,2.33
2023-07-10T13:41:21.589Z,2.57
2023-07-10T13:43:48.951Z,2.30
2023-07-10T13:46:28.508Z,2.30
2023-07-10T13:48:58.291Z,2.63
2023-07-10T13:51:28.393Z,2.40
2023-07-10T13:53:55.917Z,2.30
2023-07-10T13:56:25.796Z,2.10
2023-07-10T13:58:53.748Z,2.30
2023-07-10T14:01:21.668Z,1.90
2023-07-10T14:03:48.817Z,2.10
2023-07-10T14:06:40.573Z,2.20
2023-07-10T14:09:12.578Z,2.00
2023-07-10T14:11:39.382Z,2.20
2023-07-10T14:14:05.919Z,2.50
2023-07-10T14:16:32.866Z,2.33
2023-07-10T14:19:00.145Z,2.03
2023-07-10T14:21:26.845Z,1.80
2023-07-10T14:23:53.349Z,2.20
2023-07-10T14:26:24.102Z,2.07
2023-07-10T14:28:51.702Z,2.10
2023-07-10T14:31:18.302Z,2.00
2023-07-10T14:33:44.995Z,2.30
2023-07-10T14:36:14.780Z,2.20
2023-07-10T14:38:41.879Z,2.10
2023-07-10T14:41:12.949Z,2.80
2023-07-10T14:43:41.753Z,2.27
2023-07-10T14:46:17.241Z,2.13
2023-07-10T14:48:45.581Z,2.40
2023-07-10T14:51:12.479Z,2.37
2023-07-10T14:53:39.394Z,1.90
2023-07-10T14:56:13.543Z,2.33
2023-07-10T14:58:40.587Z,1.73
2023-07-10T15:01:18.423Z,2.37
2023-07-10T15:03:47.093Z,2.60
2023-07-10T15:06:39.701Z,2.40
2023-07-10T15:09:08.349Z,2.50
2023-07-10T15:11:34.907Z,2.50
2023-07-10T15:14:01.507Z,2.40
2023-07-10T15:16:28.305Z,2.30
2023-07-10T15:18:54.907Z,2.30
2023-07-10T15:21:29.309Z,2.10
2023-07-10T15:23:55.865Z,3.10
2023-07-10T15:26:22.348Z,2.53
2023-07-10T15:28:48.838Z,2.60
2023-07-10T15:31:15.785Z,2.40
2023-07-10T15:33:44.244Z,2.80
2023-07-10T15:36:19.049Z,2.43
2023-07-10T15:38:46.268Z,2.53
2023-07-10T15:41:22.767Z,2.30
2023-07-10T15:43:49.376Z,2.10
2023-07-10T15:46:16.011Z,2.00
2023-07-10T15:48:42.998Z,2.53
2023-07-10T15:51:22.640Z,2.10
2023-07-10T15:53:49.363Z,2.50
2023-07-10T15:56:15.908Z,2.40
2023-07-10T15:58:43.012Z,2.00
2023-07-10T16:01:16.680Z,2.60
2023-07-10T16:03:43.868Z,2.03
2023-07-10T16:06:10.693Z,2.40
2023-07-10T16:08:39.194Z,2.33
2023-07-10T16:11:19.371Z,2.30
2023-07-10T16:13:48.849Z,2.27
2023-07-10T16:16:15.975Z,2.30
2023-07-10T17:40:12.967Z,2.20
2023-07-10T17:42:39.520Z,2.70
2023-07-10T17:45:14.413Z,2.07
2023-07-10T17:47:40.960Z,2.23
2023-07-10T17:50:12.640Z,2.23
2023-07-10T17:52:39.396Z,2.40
2023-07-10T17:55:06.498Z,2.70
2023-07-10T17:57:33.036Z,2.10
2023-07-10T17:59:59.541Z,2.10
2023-07-10T18:02:33.755Z,2.00
2023-07-10T18:05:00.499Z,2.10
2023-07-10T18:07:27.061Z,2.37
2023-07-10T18:09:53.754Z,2.20
2023-07-10T18:12:20.860Z,2.40
2023-07-10T18:14:48.534Z,2.23
2023-07-10T18:17:20.594Z,2.50
2023-07-10T18:19:50.962Z,2.20
2023-07-10T18:22:18.188Z,2.17
2023-07-10T18:24:45.061Z,2.80
2023-07-10T18:27:25.086Z,2.53
2023-07-10T18:29:51.564Z,2.00
2023-07-10T18:32:21.374Z,2.37
2023-07-10T18:34:50.575Z,2.40
2023-07-10T18:37:19.618Z,2.67
2023-07-10T18:39:46.313Z,2.20
2023-07-10T18:42:29.090Z,2.13
2023-07-10T18:44:57.042Z,2.37
2023-07-10T18:47:23.888Z,2.20
2023-07-10T18:49:50.477Z,2.10
2023-07-10T18:52:30.165Z,2.50
2023-07-10T18:54:56.846Z,2.37
2023-07-10T18:57:23.427Z,2.17
2023-07-10T18:59:49.919Z,2.20
2023-07-10T19:02:16.612Z,2.20
2023-07-10T19:04:43.223Z,3.03
2023-07-10T19:07:15.471Z,2.40
2023-07-10T19:09:44.804Z,2.70
2023-07-10T19:12:16.395Z,2.67
2023-07-10T19:14:44.273Z,43.17
2023-07-10T19:17:20.575Z,5.20
2023-07-10T19:19:52.586Z,3.07
2023-07-10T19:22:19.718Z,2.67
2023-07-10T19:24:46.757Z,3.13
2023-07-10T19:27:13.284Z,2.47
2023-07-10T19:29:40.569Z,2.33
2023-07-10T19:32:22.086Z,2.30
2023-07-10T19:34:50.091Z,2.30
2023-07-10T19:37:16.795Z,8.57
2023-07-10T19:39:44.867Z,5.27
2023-07-10T19:42:11.369Z,2.80
2023-07-10T19:44:56.764Z,5.77
2023-07-10T19:47:25.808Z,3.93
2023-07-10T19:49:54.566Z,2.87
2023-07-10T19:52:21.387Z,2.73
2023-07-10T19:54:49.283Z,2.40
2023-07-10T19:57:29.323Z,7.73
2023-07-10T19:59:55.887Z,6.20
2023-07-10T20:02:22.894Z,2.97
2023-07-10T20:04:49.563Z,4.10
2023-07-10T20:07:18.005Z,3.13
2023-07-10T20:09:45.077Z,2.67
2023-07-10T20:12:18.348Z,2.30
2023-07-10T20:14:44.976Z,3.00
2023-07-10T20:17:34.032Z,2.33
2023-07-10T20:20:02.369Z,2.77
2023-07-10T20:22:28.858Z,2.60
2023-07-10T20:24:55.489Z,2.57
2023-07-10T20:27:22.241Z,3.67
2023-07-10T20:29:48.735Z,2.80
2023-07-10T20:32:15.221Z,3.20
2023-07-10T20:34:48.808Z,2.73
2023-07-10T20:37:19.066Z,2.60
2023-07-10T20:39:45.717Z,2.60
2023-07-10T20:42:13.670Z,2.97
2023-07-10T20:44:40.537Z,2.40
2023-07-10T20:47:15.116Z,2.67
2023-07-10T20:49:41.662Z,2.80
2023-07-10T20:52:15.281Z,2.43
2023-07-10T20:54:42.313Z,2.93
2023-07-10T20:57:13.345Z,2.73
2023-07-10T20:59:40.294Z,2.73
2023-07-10T21:02:20.889Z,3.40
2023-07-10T21:04:47.613Z,3.10
2023-07-10T21:07:19.771Z,3.20
2023-07-10T21:09:50.060Z,2.40
2023-07-10T21:12:18.868Z,3.00
2023-07-10T21:14:46.202Z,2.67
2023-07-10T21:17:23.157Z,2.60
2023-07-10T21:19:49.785Z,2.60
2023-07-10T21:22:19.504Z,2.87
2023-07-10T21:24:48.604Z,2.30
2023-07-10T21:27:18.882Z,2.90
2023-07-10T21:29:46.211Z,4.50
2023-07-10T21:32:19.471Z,2.73
2023-07-10T21:34:46.391Z,2.90
2023-07-10T21:37:12.973Z,2.80
2023-07-10T21:39:39.485Z,2.40
2023-07-10T21:42:06.513Z,2.90
2023-07-10T21:44:33.151Z,3.27
2023-07-10T21:46:59.764Z,2.53
2023-07-10T21:49:26.311Z,2.63
2023-07-10T21:51:52.853Z,2.40
2023-07-10T21:54:19.318Z,2.63
2023-07-10T21:56:46.878Z,2.40
2023-07-10T21:59:21.737Z,2.30
2023-07-10T22:01:50.065Z,2.60
2023-07-10T22:04:17.882Z,2.77
2023-07-10T22:06:46.236Z,2.73
2023-07-10T22:09:14.434Z,2.63
2023-07-10T22:11:43.231Z,2.27
2023-07-10T22:14:14.879Z,2.50
2023-07-10T22:16:43.641Z,2.33
2023-07-10T22:19:10.543Z,2.60
2023-07-10T22:21:37.578Z,2.43
2023-07-10T22:24:04.936Z,2.47
2023-07-10T22:26:31.507Z,2.57
2023-07-10T22:28:58.288Z,2.87
2023-07-10T22:31:27.354Z,2.10
2023-07-10T22:33:56.338Z,2.60
2023-07-10T22:36:23.358Z,2.70
2023-07-10T22:38:50.043Z,2.50
2023-07-10T22:41:27.562Z,2.53
2023-07-10T22:43:59.649Z,2.60
2023-07-10T22:46:32.465Z,2.50
2023-07-10T22:49:00.423Z,2.60
2023-07-10T22:51:30.920Z,2.83
2023-07-10T22:53:58.173Z,2.43
2023-07-10T22:56:27.655Z,2.67
2023-07-10T22:58:54.584Z,2.90
2023-07-10T23:01:22.622Z,2.23
2023-07-10T23:03:51.334Z,2.20
2023-07-10T23:06:23.359Z,2.47
2023-07-10T23:08:51.162Z,2.80
2023-07-10T23:11:18.100Z,2.50
2023-07-10T23:13:45.290Z,2.37
2023-07-10T23:16:17.259Z,2.53
2023-07-10T23:18:52.472Z,2.53
2023-07-10T23:21:21.238Z,2.90
2023-07-10T23:23:47.809Z,2.53
2023-07-10T23:26:16.328Z,2.40
2023-07-10T23:28:43.132Z,2.17
2023-07-10T23:31:25.971Z,2.23
2023-07-10T23:33:52.872Z,2.43
2023-07-10T23:36:21.326Z,2.80
2023-07-10T23:38:48.256Z,2.80
2023-07-10T23:41:16.197Z,2.67
2023-07-10T23:43:43.158Z,2.30
2023-07-10T23:46:10.599Z,2.73
2023-07-10T23:48:37.467Z,2.60
2023-07-10T23:51:04.269Z,2.40
2023-07-10T23:53:31.699Z,2.73
2023-07-10T23:55:58.574Z,2.77
2023-07-10T23:58:25.432Z,2.93
